Harrison Township, New Jersey
Current Conditions -  °F | °C
As of 12:54 AM on Wednesday 26 Nov 2014 (Local Time) from KPHL Reporting Station
Overcast Overcast  
Wind Chill: 47°   Ceiling: 15000
Heat Index: 47°   Visibility: 10mi
Dew Point: 35°   Wind: 0mph
Humidity: 63%   Direction: NA
Pressure: 30.19"   Gusts: NA
Location:  39.7176°N, 75.2231°W
Report Text: KPHL 260554Z 00000KT 10SM BKN150 OVC180 08/02 A3019 RMK AO2 SLP222 T00830017 10106 20083 51010 $
Loading
Personal Weather Stations






























Interactive Weather Map New forecast layout! Learn more

10-Day Weather Forecast

Advertisements
Track Severe Weather on mobile